Time;durP1;ratioP1;P1;durP2;ratioP2;P2;SDS_P1;SDS_P2;PMS_P1;PMS_P2;Temp;Humidity;BMP_temperature;BMP_pressure;BME280_temperature;BME280_humidity;BME280_pressure;Samples;Min_cycle;Max_cycle;Signal;HPM_P1;HPM_P2
2023/12/28 00:03:27;;;;;;;0.00;0.00;;;;;;;-145.06;100.00;54447.31;10436176;28;20469;-69
2023/12/28 00:08:28;;;;;;;0.10;0.10;;;;;;;-145.06;100.00;54408.84;10457107;28;20024;-67
2023/12/28 00:13:28;;;;;;;0.10;0.10;;;;;;;-145.06;100.00;54439.22;10472625;28;20021;-69
2023/12/28 00:18:28;;;;;;;0.00;0.00;;;;;;;-145.06;100.00;54429.09;10427435;28;20776;-70
2023/12/28 00:23:29;;;;;;;0.00;0.00;;;;;;;-145.06;100.00;54508.09;10462179;28;20632;-69
2023/12/28 00:28:29;;;;;;;0.00;0.00;;;;;;;-145.06;100.00;54491.88;10453293;28;20040;-69
2023/12/28 00:33:29;;;;;;;0.00;0.00;;;;;;;-145.06;100.00;54560.75;10453289;28;20043;-69
2023/12/28 00:38:30;;;;;;;0.00;0.00;;;;;;;-145.06;100.00;54504.03;10452925;28;20033;-69
2023/12/28 00:43:30;;;;;;;0.00;0.00;;;;;;;-145.06;100.00;54536.44;10461906;28;20362;-69
2023/12/28 00:48:31;;;;;;;0.00;0.00;;;;;;;-145.06;100.00;54558.72;10494465;28;20021;-68
2023/12/28 00:53:31;;;;;;;0.00;0.00;;;;;;;-145.06;100.00;54548.59;10454927;28;20460;-68
2023/12/28 00:58:31;;;;;;;0.00;0.00;;;;;;;-145.06;100.00;54534.41;10452611;28;20056;-69
2023/12/28 01:03:32;;;;;;;0.03;0.03;;;;;;;-145.06;100.00;54540.50;10452184;28;20075;-68
2023/12/28 01:08:33;;;;;;;0.10;0.10;;;;;;;-145.06;100.00;54512.13;10450635;28;20017;-69
2023/12/28 01:13:35;;;;;;;0.10;0.10;;;;;;;-145.06;100.00;54499.97;10460475;28;20052;-69
2023/12/28 01:18:36;;;;;;;0.00;0.00;;;;;;;-145.06;100.00;54461.50;10453304;28;20025;-69
2023/12/28 01:23:36;;;;;;;0.10;0.10;;;;;;;-145.06;100.00;54453.41;10469328;28;20033;-69
2023/12/28 01:28:37;;;;;;;0.00;0.00;;;;;;;-145.06;100.00;54435.16;10469882;28;20021;-69
2023/12/28 01:33:37;;;;;;;0.00;0.00;;;;;;;-145.06;100.00;54443.28;10456738;28;20032;-69
2023/12/28 01:38:38;;;;;;;0.00;0.00;;;;;;;-145.06;100.00;54414.91;10472939;28;20028;-69
2023/12/28 01:43:39;;;;;;;0.10;0.10;;;;;;;-145.06;100.00;54427.06;10444560;28;20477;-69
2023/12/28 01:48:41;;;;;;;0.00;0.00;;;;;;;-145.06;100.00;54406.81;10469403;28;20461;-69
2023/12/28 01:53:43;;;;;;;0.05;0.05;;;;;;;-145.06;100.00;54437.19;10479646;28;20386;-69
2023/12/28 01:58:44;;;;;;;0.10;0.10;;;;;;;-145.06;100.00;54398.72;10463021;28;20094;-69
2023/12/28 02:03:45;;;;;;;0.10;0.10;;;;;;;-145.06;100.00;54423.00;10481295;28;20056;-68
2023/12/28 02:08:46;;;;;;;0.00;0.00;;;;;;;-145.06;100.00;54388.56;10461092;28;20029;-69
2023/12/28 02:13:46;;;;;;;0.00;0.00;;;;;;;-145.06;100.00;54410.84;10473989;28;20028;-69
2023/12/28 02:18:51;;;;;;;0.00;0.00;;;;;;;-145.06;100.00;54429.09;10456842;28;20029;-69
2023/12/28 02:23:51;;;;;;;0.00;0.00;;;;;;;-145.06;100.00;54408.84;10465934;28;20021;-69
2023/12/28 02:28:51;;;;;;;0.00;0.00;;;;;;;-145.06;100.00;54410.84;10415036;28;20021;-69
2023/12/28 02:34:00;;;;;;;0.10;0.10;;;;;;;-145.06;100.00;54416.94;10442489;28;20024;-69
2023/12/28 02:39:03;;;;;;;0.10;0.10;;;;;;;-145.06;100.00;54414.91;10463336;28;20024;-68
2023/12/28 02:44:03;;;;;;;0.10;0.10;;;;;;;-145.06;100.00;54445.28;10451707;28;20469;-69
2023/12/28 02:49:04;;;;;;;0.00;0.00;;;;;;;-145.06;100.00;54388.56;10456385;28;20061;-69
2023/12/28 02:54:04;;;;;;;0.00;0.00;;;;;;;-145.06;100.00;54394.66;10448210;28;20047;-69
2023/12/28 02:59:04;;;;;;;0.00;0.00;;;;;;;-145.06;100.00;54429.09;10474724;28;20795;-69
2023/12/28 03:04:05;;;;;;;0.00;0.00;;;;;;;-145.06;100.00;54433.13;10461480;28;20321;-69
2023/12/28 03:09:05;;;;;;;0.10;0.10;;;;;;;-145.06;100.00;54412.88;10472310;28;20056;-69
2023/12/28 03:14:05;;;;;;;0.03;0.03;;;;;;;-145.06;100.00;54427.06;10472992;28;20267;-69
2023/12/28 03:19:06;;;;;;;0.00;0.00;;;;;;;-145.06;100.00;54402.75;10436147;28;20032;-68
2023/12/28 03:24:06;;;;;;;0.00;0.00;;;;;;;-145.06;100.00;54376.44;10460877;28;20393;-68
2023/12/28 03:29:08;;;;;;;0.10;0.10;;;;;;;-145.06;100.00;54396.69;10493389;28;20061;-68
2023/12/28 03:34:08;;;;;;;0.00;0.00;;;;;;;-145.06;100.00;54406.81;10464508;28;20056;-68
2023/12/28 03:39:08;;;;;;;0.10;0.10;;;;;;;-145.06;100.00;54423.00;10450419;28;20057;-69
2023/12/28 03:44:09;;;;;;;0.10;0.10;;;;;;;-145.06;100.00;54425.03;10441223;28;20021;-69
2023/12/28 03:49:09;;;;;;;0.10;0.10;;;;;;;-145.06;100.00;54421.00;10480203;28;20021;-69
2023/12/28 03:54:10;;;;;;;0.08;0.08;;;;;;;-145.06;100.00;54402.75;10463570;28;20020;-68
2023/12/28 03:59:10;;;;;;;0.03;0.03;;;;;;;-145.06;100.00;54394.66;10490146;28;20021;-69
2023/12/28 04:04:10;;;;;;;0.00;0.00;;;;;;;-145.06;100.00;54406.81;10446309;28;20378;-68
2023/12/28 04:09:12;;;;;;;0.00;0.00;;;;;;;-145.06;100.00;54346.03;10453354;28;20016;-68
2023/12/28 04:14:12;;;;;;;0.03;0.03;;;;;;;-145.06;100.00;54394.66;10466758;28;20390;-69
2023/12/28 04:19:13;;;;;;;0.10;0.10;;;;;;;-145.06;100.00;54410.84;10453511;28;20078;-70
2023/12/28 04:24:13;;;;;;;0.00;0.00;;;;;;;-145.06;100.00;54441.25;10481839;28;20021;-69
2023/12/28 04:29:13;;;;;;;0.00;0.00;;;;;;;-145.06;100.00;54390.59;10454563;28;20025;-69
2023/12/28 04:34:14;;;;;;;0.00;0.00;;;;;;;-145.06;100.00;54398.72;10472127;28;20267;-69
2023/12/28 04:39:14;;;;;;;0.00;0.00;;;;;;;-145.06;100.00;54390.59;10474525;28;20028;-69
2023/12/28 04:44:14;;;;;;;0.10;0.10;;;;;;;-145.06;100.00;54398.72;10488567;28;20021;-69
2023/12/28 04:49:15;;;;;;;0.00;0.00;;;;;;;-145.06;100.00;54410.84;10477106;28;20490;-69
2023/12/28 04:54:15;;;;;;;0.00;0.00;;;;;;;-145.06;100.00;54414.91;10473978;28;20028;-68
2023/12/28 04:59:15;;;;;;;0.10;0.10;;;;;;;-145.06;100.00;54394.66;10479759;28;20032;-69
2023/12/28 05:04:15;;;;;;;0.10;0.10;;;;;;;-145.06;100.00;54425.03;10488750;28;20046;-68
2023/12/28 05:09:16;;;;;;;0.10;0.10;;;;;;;-145.06;100.00;54402.75;10488107;28;20443;-68
2023/12/28 05:14:16;;;;;;;0.00;0.00;;;;;;;-145.06;100.00;54418.97;10472363;28;20025;-68
2023/12/28 05:19:16;;;;;;;0.10;0.10;;;;;;;-145.06;100.00;54394.66;10452264;28;20378;-68
2023/12/28 05:24:17;;;;;;;0.10;0.10;;;;;;;-145.06;100.00;54398.72;10447516;28;20025;-68
2023/12/28 05:29:17;;;;;;;0.00;0.00;;;;;;;-145.06;100.00;54431.13;10452585;28;20259;-68
2023/12/28 05:34:17;;;;;;;0.00;0.00;;;;;;;-145.06;100.00;54433.13;10475741;28;20045;-69
2023/12/28 05:39:18;;;;;;;0.10;0.10;;;;;;;-145.06;100.00;54431.13;10470379;28;20016;-69
2023/12/28 05:44:18;;;;;;;0.10;0.10;;;;;;;-145.06;100.00;54408.84;10484964;28;20531;-69
2023/12/28 05:49:18;;;;;;;0.00;0.00;;;;;;;-145.06;100.00;54412.88;10473943;28;20263;-69
2023/12/28 05:54:19;;;;;;;0.00;0.00;;;;;;;-145.06;100.00;54425.03;10467519;28;20271;-68
2023/12/28 05:59:21;;;;;;;0.10;0.10;;;;;;;-145.06;100.00;54400.72;10489089;28;20026;-69
2023/12/28 06:04:21;;;;;;;0.00;0.00;;;;;;;-145.06;100.00;54400.72;10457086;28;20025;-69
2023/12/28 06:09:22;;;;;;;0.10;0.10;;;;;;;-145.06;100.00;54370.34;10487050;28;20293;-69
2023/12/28 06:14:22;;;;;;;0.00;0.00;;;;;;;-145.06;100.00;54394.66;10453340;28;20193;-69
2023/12/28 06:19:22;;;;;;;0.00;0.00;;;;;;;-145.06;100.00;54380.47;10456252;28;20371;-69
2023/12/28 06:24:23;;;;;;;0.10;0.10;;;;;;;-145.06;100.00;54390.59;10437475;28;20268;-69
2023/12/28 06:29:23;;;;;;;0.00;0.00;;;;;;;-145.06;100.00;54382.50;10455994;28;20016;-69
2023/12/28 06:34:23;;;;;;;0.00;0.00;;;;;;;-145.06;100.00;54315.66;10459917;28;20031;-69
2023/12/28 06:39:24;;;;;;;0.10;0.10;;;;;;;-145.06;100.00;54370.34;10479160;28;20497;-69
2023/12/28 06:44:24;;;;;;;0.10;0.10;;;;;;;-145.06;100.00;54350.09;10465504;28;20025;-68
2023/12/28 06:49:25;;;;;;;0.10;0.10;;;;;;;-145.06;100.00;54370.34;10487093;28;20012;-69
2023/12/28 06:54:25;;;;;;;0.00;0.00;;;;;;;-145.06;100.00;54346.03;10453813;28;20741;-68
2023/12/28 06:59:25;;;;;;;0.10;0.10;;;;;;;-145.06;100.00;54325.78;10443706;28;20498;-68
2023/12/28 07:04:29;;;;;;;0.10;0.10;;;;;;;-145.06;100.00;54366.31;10447852;28;20041;-69
2023/12/28 07:09:29;;;;;;;0.00;0.00;;;;;;;-145.06;100.00;54374.41;10459001;28;20470;-69
2023/12/28 07:14:29;;;;;;;0.10;0.10;;;;;;;-145.06;100.00;54368.31;10464042;28;20020;-69
2023/12/28 07:19:30;;;;;;;0.00;0.00;;;;;;;-145.06;100.00;54372.38;10421658;28;20025;-69
2023/12/28 07:24:30;;;;;;;0.00;0.00;;;;;;;-145.06;100.00;54354.16;10455524;28;20021;-69
2023/12/28 07:29:30;;;;;;;0.00;0.00;;;;;;;-145.06;100.00;54333.91;10463633;28;20024;-69
2023/12/28 07:34:32;;;;;;;0.10;0.10;;;;;;;-145.06;100.00;54392.63;10459821;28;20055;-69
2023/12/28 07:39:32;;;;;;;0.10;0.10;;;;;;;-145.06;100.00;54362.25;10482384;28;20465;-69
2023/12/28 07:44:32;;;;;;;0.10;0.10;;;;;;;-145.06;100.00;54356.19;10465885;28;20020;-69
2023/12/28 07:49:32;;;;;;;0.10;0.10;;;;;;;-145.06;100.00;54323.78;10449645;28;20017;-68
2023/12/28 07:54:33;;;;;;;0.00;0.00;;;;;;;-145.06;100.00;54331.88;10476251;28;20033;-69
2023/12/28 07:59:33;;;;;;;0.10;0.10;;;;;;;-145.06;100.00;54335.91;10481768;28;20511;-69
2023/12/28 08:04:33;;;;;;;0.00;0.00;;;;;;;-145.06;100.00;54315.66;10447469;28;20040;-69
2023/12/28 08:09:35;;;;;;;0.03;0.03;;;;;;;-145.06;100.00;54297.44;10482491;28;20259;-70
2023/12/28 08:14:35;;;;;;;0.10;0.10;;;;;;;-145.06;100.00;54323.78;10495012;28;20267;-69
2023/12/28 08:19:35;;;;;;;0.10;0.10;;;;;;;-145.06;100.00;54287.31;10459043;28;20390;-68
2023/12/28 08:24:36;;;;;;;0.10;0.10;;;;;;;-145.06;100.00;54301.50;10452914;28;20025;-69
2023/12/28 08:29:36;;;;;;;0.10;0.10;;;;;;;-145.06;100.00;54283.25;10462692;28;20374;-69
2023/12/28 08:34:37;;;;;;;0.00;0.00;;;;;;;-145.06;100.00;54263.00;10453767;28;20106;-69
2023/12/28 08:39:39;;;;;;;0.10;0.10;;;;;;;-145.06;100.00;54275.16;10494286;28;20074;-69
2023/12/28 08:44:39;;;;;;;0.10;0.10;;;;;;;-145.06;100.00;54267.06;10460788;28;20056;-69
2023/12/28 08:49:41;;;;;;;0.10;0.10;;;;;;;-145.06;100.00;54250.84;10420922;28;20455;-69
2023/12/28 08:54:41;;;;;;;0.10;0.10;;;;;;;-145.06;100.00;54236.69;10463405;28;20017;-68
2023/12/28 08:59:42;;;;;;;0.00;0.00;;;;;;;-145.06;100.00;54250.84;10452662;28;20351;-69
2023/12/28 09:04:42;;;;;;;0.10;0.10;;;;;;;-145.06;100.00;54244.78;10459479;28;20032;-68
2023/12/28 09:09:42;;;;;;;0.10;0.10;;;;;;;-145.06;100.00;54216.44;10469682;28;20326;-69
2023/12/28 09:14:42;;;;;;;0.00;0.00;;;;;;;-145.06;100.00;54200.22;10453739;28;20046;-69
2023/12/28 09:19:43;;;;;;;0.10;0.10;;;;;;;-145.06;100.00;54220.47;10484144;28;20112;-69
2023/12/28 09:24:43;;;;;;;0.00;0.00;;;;;;;-145.06;100.00;54218.44;10456702;28;20024;-69
2023/12/28 09:29:44;;;;;;;0.00;0.00;;;;;;;-145.06;100.00;54220.47;10489303;28;20028;-69
2023/12/28 09:34:44;;;;;;;0.00;0.00;;;;;;;-145.06;100.00;54232.63;10464072;28;20437;-69
2023/12/28 09:39:44;;;;;;;0.10;0.10;;;;;;;-145.06;100.00;54240.72;10433534;28;20076;-70
2023/12/28 09:44:45;;;;;;;0.10;0.10;;;;;;;-145.06;100.00;54248.84;10454811;28;20452;-69
2023/12/28 09:49:46;;;;;;;0.00;0.00;;;;;;;-145.06;100.00;54220.47;10470538;28;20254;-70
2023/12/28 09:54:47;;;;;;;0.10;0.10;;;;;;;-145.06;100.00;54236.69;10490845;28;20027;-69
2023/12/28 09:59:47;;;;;;;0.00;0.00;;;;;;;-145.06;100.00;54200.22;10445029;28;20021;-70
2023/12/28 10:04:48;;;;;;;0.10;0.10;;;;;;;-145.06;100.00;54175.91;10468049;28;20104;-69
2023/12/28 10:09:48;;;;;;;0.10;0.10;;;;;;;-145.06;100.00;54202.25;10473012;28;20016;-70
2023/12/28 10:14:50;;;;;;;0.00;0.00;;;;;;;-145.06;100.00;54220.47;10489299;28;20040;-70
2023/12/28 10:19:52;;;;;;;0.00;0.00;;;;;;;-145.06;99.83;54250.84;10479390;28;20025;-70
2023/12/28 10:24:52;;;;;;;0.10;0.10;;;;;;;-145.06;99.98;54244.78;10458950;28;20031;-69
2023/12/28 10:29:55;;;;;;;0.10;0.10;;;;;;;-145.06;99.96;54186.03;10490107;28;20025;-69
2023/12/28 10:34:56;;;;;;;0.10;0.10;;;;;;;-145.06;100.00;54212.38;10465636;28;20116;-69
2023/12/28 10:39:59;;;;;;;0.10;0.10;;;;;;;-145.06;100.00;54222.50;10478838;28;20132;-69
2023/12/28 10:45:07;;;;;;;0.00;0.00;;;;;;;-145.06;99.21;54224.53;10459785;28;20090;-70
2023/12/28 10:50:10;;;;;;;0.10;0.10;;;;;;;-145.06;99.16;54198.19;10462853;28;20448;-70
2023/12/28 10:55:30;;;;;;;0.00;0.00;;;;;;;-145.06;99.51;54208.31;10464583;28;20104;-70
2023/12/28 11:00:36;;;;;;;0.00;0.00;;;;;;;-145.06;99.24;54222.50;10436658;28;20040;-70
2023/12/28 11:05:37;;;;;;;0.00;0.00;;;;;;;-145.06;98.64;54230.59;10447454;28;20021;-70
2023/12/28 11:10:38;;;;;;;0.10;0.10;;;;;;;-145.06;98.70;54252.88;10475131;28;20390;-69
2023/12/28 11:15:39;;;;;;;0.08;0.08;;;;;;;-145.06;98.86;54236.69;10463075;28;20798;-70
2023/12/28 11:20:41;;;;;;;0.00;0.00;;;;;;;-145.06;99.09;54246.81;10458198;28;20565;-70
2023/12/28 11:25:42;;;;;;;0.10;0.10;;;;;;;-145.06;99.18;54269.09;10470570;28;20055;-70
2023/12/28 11:30:45;;;;;;;0.00;0.00;;;;;;;-145.06;99.14;54248.84;10461821;28;20057;-70
2023/12/28 11:35:47;;;;;;;0.00;0.00;;;;;;;-145.06;99.09;54263.00;10468519;28;20109;-69
2023/12/28 11:40:47;;;;;;;0.10;0.10;;;;;;;-145.06;98.94;54275.16;10452425;28;20029;-70
2023/12/28 11:45:50;;;;;;;0.00;0.00;;;;;;;-145.06;97.89;54273.13;10483881;28;20028;-70
2023/12/28 11:50:53;;;;;;;0.10;0.10;;;;;;;-145.06;98.50;54254.91;10453816;28;20071;-70
2023/12/28 11:56:02;;;;;;;0.10;0.10;;;;;;;-145.06;97.78;54234.66;10466030;28;20017;-70
2023/12/28 12:01:02;;;;;;;0.10;0.10;;;;;;;-145.06;98.08;54238.69;10469091;28;20025;-69
2023/12/28 12:06:03;;;;;;;0.00;0.00;;;;;;;-145.06;97.75;54244.78;10469462;28;20025;-73
2023/12/28 12:11:07;;;;;;;0.10;0.10;;;;;;;-145.06;99.51;54228.56;10456913;28;20082;-72
2023/12/28 12:16:07;;;;;;;0.10;0.10;;;;;;;-145.06;100.00;54236.69;10461155;28;20032;-72
2023/12/28 12:21:08;;;;;;;0.10;0.10;;;;;;;-145.06;100.00;54244.78;10467867;28;20111;-71
2023/12/28 12:26:08;;;;;;;0.10;0.10;;;;;;;-145.06;100.00;54252.88;10461052;28;20021;-75
2023/12/28 12:31:09;;;;;;;0.10;0.10;;;;;;;-145.06;100.00;54279.22;10466417;28;20162;-72
2023/12/28 12:36:09;;;;;;;0.10;0.10;;;;;;;-145.06;100.00;54248.84;10462708;28;20295;-70
2023/12/28 12:41:11;;;;;;;0.10;0.10;;;;;;;-145.06;100.00;54271.09;10465173;28;20625;-69
2023/12/28 12:46:12;;;;;;;0.10;0.10;;;;;;;-145.06;100.00;54273.13;10459939;28;20021;-68
2023/12/28 12:51:12;;;;;;;0.10;0.10;;;;;;;-145.06;100.00;54265.03;10467391;28;20021;-72
2023/12/28 12:56:13;;;;;;;0.00;0.00;;;;;;;-145.06;100.00;54265.03;10464571;28;20029;-72
2023/12/28 13:01:13;;;;;;;0.10;0.10;;;;;;;-145.06;100.00;54285.28;10473086;28;20077;-70
2023/12/28 13:06:14;;;;;;;0.10;0.10;;;;;;;-145.06;99.79;54258.97;10465768;28;20070;-72
2023/12/28 13:11:15;;;;;;;0.10;0.10;;;;;;;-145.06;99.33;54256.94;10481403;28;20024;-69
2023/12/28 13:16:15;;;;;;;0.00;0.00;;;;;;;-145.06;99.86;54273.13;10463281;28;20286;-68
2023/12/28 13:21:16;;;;;;;0.00;0.00;;;;;;;-145.06;100.00;54281.22;10463504;28;20170;-67
2023/12/28 13:26:16;;;;;;;0.00;0.00;;;;;;;-145.06;99.55;54277.19;10479527;28;20266;-68
2023/12/28 13:31:18;;;;;;;0.00;0.00;;;;;;;-145.06;99.21;54305.53;10471569;28;20036;-68
2023/12/28 13:36:18;;;;;;;0.00;0.00;;;;;;;-145.06;100.00;54299.47;10481620;28;20023;-69
2023/12/28 13:41:19;;;;;;;0.10;0.10;;;;;;;-145.06;100.00;54287.31;10478095;28;20020;-69
2023/12/28 13:46:19;;;;;;;0.10;0.10;;;;;;;-145.06;100.00;54297.44;10465739;28;20028;-68
2023/12/28 13:51:19;;;;;;;0.10;0.10;;;;;;;-145.06;100.00;54285.28;10467052;28;20571;-68
2023/12/28 13:56:19;;;;;;;0.00;0.00;;;;;;;-145.06;100.00;54252.88;10474544;28;20032;-68
2023/12/28 14:01:20;;;;;;;0.10;0.10;;;;;;;-145.06;100.00;54250.84;10463206;28;20021;-68
2023/12/28 14:06:20;;;;;;;0.10;0.10;;;;;;;-145.06;100.00;54263.00;10465799;28;20082;-68
2023/12/28 14:11:21;;;;;;;0.10;0.10;;;;;;;-145.06;100.00;54301.50;10467811;28;20019;-67
2023/12/28 14:16:21;;;;;;;0.10;0.10;;;;;;;-145.06;100.00;54303.50;10473694;28;20052;-69
2023/12/28 14:21:21;;;;;;;0.10;0.10;;;;;;;-145.06;100.00;54297.44;10472522;28;20052;-67
2023/12/28 14:26:22;;;;;;;0.10;0.10;;;;;;;-145.06;100.00;54305.53;10474642;28;20020;-69
2023/12/28 14:31:23;;;;;;;0.10;0.10;;;;;;;-145.06;100.00;54289.34;10464290;28;20017;-69
2023/12/28 14:36:31;;;;;;;0.10;0.10;;;;;;;-145.06;100.00;54339.97;10477435;28;20079;-69
2023/12/28 14:41:33;;;;;;;0.08;0.08;;;;;;;-145.06;100.00;54329.84;10452501;28;20016;-68
2023/12/28 14:46:33;;;;;;;0.10;0.10;;;;;;;-145.06;100.00;54335.91;10473526;28;20025;-68
2023/12/28 14:51:33;;;;;;;0.10;0.10;;;;;;;-145.06;100.00;54346.03;10468623;28;20171;-69
2023/12/28 14:56:34;;;;;;;0.00;0.00;;;;;;;-145.06;100.00;54321.75;10463086;28;20029;-68
2023/12/28 15:01:34;;;;;;;0.10;0.10;;;;;;;-145.06;100.00;54311.63;10467164;28;20035;-68
2023/12/28 15:06:34;;;;;;;0.10;0.10;;;;;;;-145.06;100.00;54309.59;10461237;28;20039;-68
2023/12/28 15:11:36;;;;;;;0.10;0.10;;;;;;;-145.06;100.00;54335.91;10463823;28;20471;-69
2023/12/28 15:16:37;;;;;;;0.10;0.10;;;;;;;-145.06;100.00;54356.19;10471062;28;20509;-69
2023/12/28 15:21:38;;;;;;;0.10;0.10;;;;;;;-145.06;100.00;54354.16;10455472;28;20025;-69
2023/12/28 15:26:38;;;;;;;0.00;0.00;;;;;;;-145.06;100.00;54374.41;10474382;28;20029;-68
2023/12/28 15:31:38;;;;;;;0.10;0.10;;;;;;;-145.06;100.00;54366.31;10461996;28;20024;-69
2023/12/28 15:36:39;;;;;;;0.10;0.10;;;;;;;-145.06;100.00;54335.91;10464173;28;20287;-69
2023/12/28 15:41:39;;;;;;;0.10;0.10;;;;;;;-145.06;100.00;54378.44;10468258;28;20013;-68
2023/12/28 15:46:39;;;;;;;0.10;0.10;;;;;;;-145.06;100.00;54374.41;10469337;28;20013;-68
2023/12/28 15:51:40;;;;;;;0.00;0.00;;;;;;;-145.06;100.00;54390.59;10463901;28;20028;-68
2023/12/28 15:56:40;;;;;;;0.10;0.10;;;;;;;-145.06;100.00;54360.22;10457956;28;20021;-68
2023/12/28 16:01:40;;;;;;;0.10;0.10;;;;;;;-145.06;100.00;54364.28;10467563;28;20032;-69
2023/12/28 16:06:41;;;;;;;0.05;0.05;;;;;;;-145.06;100.00;54380.47;10474108;28;20016;-68
2023/12/28 16:11:41;;;;;;;0.10;0.10;;;;;;;-145.06;100.00;54386.56;10461671;28;20016;-68
2023/12/28 16:16:41;;;;;;;0.00;0.00;;;;;;;-145.06;100.00;54358.19;10454899;28;20021;-68
2023/12/28 16:21:42;;;;;;;0.00;0.00;;;;;;;-145.06;100.00;54390.59;10465507;28;20016;-68
2023/12/28 16:26:43;;;;;;;0.03;0.03;;;;;;;-145.06;100.00;54350.09;10473248;28;20020;-68
2023/12/28 16:31:43;;;;;;;0.10;0.10;;;;;;;-145.06;100.00;54406.81;10464401;28;20027;-66
2023/12/28 16:36:43;;;;;;;0.10;0.10;;;;;;;-145.06;100.00;54370.34;10462891;28;20094;-67
2023/12/28 16:41:43;;;;;;;0.00;0.00;;;;;;;-145.06;100.00;54370.34;10472913;28;20017;-67
2023/12/28 16:46:45;;;;;;;0.10;0.10;;;;;;;-145.06;100.00;54378.44;10452953;28;20013;-66
2023/12/28 16:51:48;;;;;;;0.00;0.00;;;;;;;-145.06;100.00;54358.19;10454674;28;20053;-68
2023/12/28 16:56:48;;;;;;;0.05;0.05;;;;;;;-145.06;100.00;54358.19;10445677;28;20032;-68
2023/12/28 17:01:49;;;;;;;0.00;0.00;;;;;;;-145.06;100.00;54339.97;10467856;28;20031;-68
2023/12/28 17:06:49;;;;;;;0.10;0.10;;;;;;;-145.06;100.00;54358.19;10460803;28;20020;-67
2023/12/28 17:12:12;;;;;;;0.10;0.10;;;;;;;-145.06;100.00;54370.34;10443305;28;20481;-68
2023/12/28 17:17:13;;;;;;;0.08;0.08;;;;;;;-145.06;100.00;54374.41;10463422;28;20032;-68
2023/12/28 17:22:16;;;;;;;0.10;0.10;;;;;;;-145.06;100.00;54390.59;10468738;28;20027;-68
2023/12/28 17:27:21;;;;;;;0.10;0.10;;;;;;;-145.06;100.00;54350.09;10437557;28;20021;-67
2023/12/28 17:32:22;;;;;;;0.08;0.08;;;;;;;-145.06;100.00;54382.50;10455520;28;20022;-68
2023/12/28 17:37:22;;;;;;;0.00;0.00;;;;;;;-145.06;100.00;54380.47;10460760;28;20028;-68
2023/12/28 17:42:28;;;;;;;0.10;0.10;;;;;;;-145.06;100.00;54402.75;10463982;28;20067;-68
2023/12/28 17:47:34;;;;;;;0.10;0.10;;;;;;;-145.06;100.00;54394.66;10466825;28;20047;-68
2023/12/28 17:52:35;;;;;;;0.00;0.00;;;;;;;-145.06;100.00;54394.66;10441369;28;20034;-68
2023/12/28 17:57:35;;;;;;;0.10;0.10;;;;;;;-145.06;100.00;54402.75;10472834;28;20031;-66
2023/12/28 18:02:36;;;;;;;0.10;0.10;;;;;;;-145.06;100.00;54421.00;10450762;28;20028;-67
2023/12/28 18:07:36;;;;;;;0.00;0.00;;;;;;;-145.06;100.00;54402.75;10467942;28;20115;-67
2023/12/28 18:12:36;;;;;;;0.10;0.10;;;;;;;-145.06;100.00;54439.22;10458088;28;20668;-67
2023/12/28 18:17:36;;;;;;;0.00;0.00;;;;;;;-145.06;100.00;54378.44;10476690;28;20037;-68
2023/12/28 18:22:37;;;;;;;0.10;0.10;;;;;;;-145.06;100.00;54437.19;10471361;28;20536;-67
2023/12/28 18:27:38;;;;;;;0.10;0.10;;;;;;;-145.06;100.00;54439.22;10465282;28;20017;-67
2023/12/28 18:32:38;;;;;;;0.10;0.10;;;;;;;-145.06;100.00;54404.78;10472881;28;20031;-68
2023/12/28 18:37:41;;;;;;;0.10;0.10;;;;;;;-145.06;100.00;54439.22;10458385;28;20024;-68
2023/12/28 18:42:41;;;;;;;0.10;0.10;;;;;;;-145.06;100.00;54429.09;10476259;28;20028;-67
2023/12/28 18:47:41;;;;;;;0.00;0.00;;;;;;;-145.06;100.00;54386.56;10480166;28;20028;-68
2023/12/28 18:52:42;;;;;;;0.10;0.10;;;;;;;-145.06;100.00;54414.91;10472984;28;20066;-68
2023/12/28 18:57:42;;;;;;;0.10;0.10;;;;;;;-145.06;100.00;54414.91;10462657;28;20283;-68
2023/12/28 19:02:42;;;;;;;0.00;0.00;;;;;;;-145.06;100.00;54406.81;10464722;28;20021;-68
2023/12/28 19:07:43;;;;;;;0.10;0.10;;;;;;;-145.06;100.00;54390.59;10455831;28;20074;-68
2023/12/28 19:12:43;;;;;;;0.10;0.10;;;;;;;-145.06;100.00;54400.72;10461365;28;20497;-67
2023/12/28 19:17:43;;;;;;;0.10;0.10;;;;;;;-145.06;100.00;54410.84;10472038;28;20028;-67
2023/12/28 19:22:44;;;;;;;0.10;0.10;;;;;;;-145.06;100.00;54388.56;10454178;28;20463;-66
2023/12/28 19:27:44;;;;;;;0.10;0.10;;;;;;;-145.06;100.00;54402.75;10462889;28;20017;-67
2023/12/28 19:32:46;;;;;;;0.10;0.10;;;;;;;-145.06;100.00;54425.03;10466235;28;20090;-68
2023/12/28 19:37:46;;;;;;;0.10;0.10;;;;;;;-145.06;100.00;54410.84;10465308;28;20158;-67
2023/12/28 19:42:47;;;;;;;0.10;0.10;;;;;;;-145.06;100.00;54400.72;10478306;28;20524;-68
2023/12/28 19:47:47;;;;;;;0.10;0.10;;;;;;;-145.06;100.00;54414.91;10473050;28;20036;-67
2023/12/28 19:52:47;;;;;;;0.10;0.10;;;;;;;-145.06;100.00;54414.91;10480427;28;20486;-67
2023/12/28 19:57:48;;;;;;;0.10;0.10;;;;;;;-145.06;100.00;54404.78;10473711;28;20763;-67
2023/12/28 20:02:48;;;;;;;0.05;0.05;;;;;;;-145.06;100.00;54408.84;10467139;28;20033;-68
2023/12/28 20:07:48;;;;;;;0.10;0.10;;;;;;;-145.06;100.00;54423.00;10456198;28;20557;-67
2023/12/28 20:12:49;;;;;;;0.10;0.10;;;;;;;-145.06;100.00;54427.06;10468043;28;20079;-67
2023/12/28 20:17:50;;;;;;;0.10;0.10;;;;;;;-145.06;100.00;54429.09;10460397;28;20013;-67
2023/12/28 20:22:50;;;;;;;0.08;0.08;;;;;;;-145.06;100.00;54443.28;10464604;28;20025;-68
2023/12/28 20:27:50;;;;;;;0.10;0.10;;;;;;;-145.06;100.00;54423.00;10457334;28;20017;-68
2023/12/28 20:32:51;;;;;;;0.00;0.00;;;;;;;-145.06;100.00;54457.44;10471691;28;20012;-68
2023/12/28 20:37:51;;;;;;;0.10;0.10;;;;;;;-145.06;100.00;54406.81;10481293;28;20078;-68
2023/12/28 20:42:51;;;;;;;0.00;0.00;;;;;;;-145.06;100.00;54439.22;10460849;28;20012;-67
2023/12/28 20:47:52;;;;;;;0.10;0.10;;;;;;;-145.06;99.21;54447.31;10460541;28;20028;-67
2023/12/28 20:52:52;;;;;;;0.00;0.00;;;;;;;-145.06;98.50;54437.19;10465932;28;20437;-67
2023/12/28 20:57:52;;;;;;;0.00;0.00;;;;;;;-145.06;98.55;54412.88;10463865;28;20058;-67
2023/12/28 21:02:53;;;;;;;0.10;0.10;;;;;;;-145.06;98.25;54443.28;10458230;28;20409;-66
2023/12/28 21:07:53;;;;;;;0.00;0.00;;;;;;;-145.06;97.95;54453.41;10467648;28;20470;-67
2023/12/28 21:13:01;;;;;;;0.10;0.10;;;;;;;-145.06;97.58;54443.28;10460082;28;20028;-67
2023/12/28 21:18:01;;;;;;;0.00;0.00;;;;;;;-145.06;98.34;54433.13;10454366;28;20486;-67
2023/12/28 21:23:01;;;;;;;0.10;0.10;;;;;;;-145.06;98.31;54461.50;10460990;28;20020;-67
2023/12/28 21:28:03;;;;;;;0.10;0.10;;;;;;;-145.06;97.65;54443.28;10463526;28;20304;-68
2023/12/28 21:33:03;;;;;;;0.10;0.10;;;;;;;-145.06;98.52;54451.38;10475669;28;20268;-68
2023/12/28 21:38:07;;;;;;;0.00;0.00;;;;;;;-145.06;98.34;54451.38;10473715;28;20409;-67
2023/12/28 21:43:09;;;;;;;0.10;0.10;;;;;;;-145.06;98.34;54449.34;10468895;28;20093;-67
2023/12/28 21:48:09;;;;;;;0.10;0.10;;;;;;;-145.06;98.00;54435.16;10469252;28;20020;-66
2023/12/28 21:53:10;;;;;;;0.10;0.10;;;;;;;-145.06;98.34;54451.38;10463171;28;20025;-66
2023/12/28 21:58:10;;;;;;;0.10;0.10;;;;;;;-145.06;98.42;54439.22;10474733;28;20016;-68
2023/12/28 22:03:11;;;;;;;0.00;0.00;;;;;;;-145.06;98.31;54427.06;10468962;28;20398;-67
2023/12/28 22:08:12;;;;;;;0.10;0.10;;;;;;;-145.06;98.30;54467.56;10455814;28;20523;-67
2023/12/28 22:13:13;;;;;;;0.10;0.10;;;;;;;-145.06;98.37;54443.28;10480985;28;20055;-68
2023/12/28 22:18:13;;;;;;;0.10;0.10;;;;;;;-145.06;98.12;54439.22;10469142;28;20021;-68
2023/12/28 22:23:13;;;;;;;0.00;0.00;;;;;;;-145.06;97.43;54487.81;10460515;28;20020;-68
2023/12/28 22:28:14;;;;;;;0.00;0.00;;;;;;;-145.06;97.56;54453.41;10465267;28;20091;-68
2023/12/28 22:33:14;;;;;;;0.00;0.00;;;;;;;-145.06;97.27;54449.34;10461344;28;20025;-68